sensor_id;sensor_type;location;lat;lon;timestamp;pressure;altitude;pressure_sealevel;temperature;humidity
13011;BME280;6786;57.632;11.962;2022-10-31T00:00:46;101010.69;;;20.61;62.71
13011;BME280;6786;57.632;11.962;2022-10-31T00:03:16;101006.44;;;20.59;62.68
13011;BME280;6786;57.632;11.962;2022-10-31T00:05:47;101013.38;;;20.61;62.67
13011;BME280;6786;57.632;11.962;2022-10-31T00:08:16;101018.75;;;20.61;62.71
13011;BME280;6786;57.632;11.962;2022-10-31T00:10:45;101022.44;;;20.60;62.83
13011;BME280;6786;57.632;11.962;2022-10-31T00:13:14;101017.06;;;20.60;62.73
13011;BME280;6786;57.632;11.962;2022-10-31T00:15:44;101006.31;;;20.60;62.77
13011;BME280;6786;57.632;11.962;2022-10-31T00:18:12;101006.31;;;20.60;62.81
13011;BME280;6786;57.632;11.962;2022-10-31T00:20:41;101006.31;;;20.60;62.60
13011;BME280;6786;57.632;11.962;2022-10-31T00:23:10;100966.97;;;20.40;62.68
13011;BME280;6786;57.632;11.962;2022-10-31T00:25:39;100994.72;;;20.60;62.76
13011;BME280;6786;57.632;11.962;2022-10-31T00:28:09;100984.81;;;20.60;63.05
13011;BME280;6786;57.632;11.962;2022-10-31T00:30:38;100992.88;;;20.60;62.93
13011;BME280;6786;57.632;11.962;2022-10-31T00:33:06;100995.56;;;20.60;62.72
13011;BME280;6786;57.632;11.962;2022-10-31T00:35:34;100991.88;;;20.61;62.58
13011;BME280;6786;57.632;11.962;2022-10-31T00:38:04;100993.56;;;20.62;62.77
13011;BME280;6786;57.632;11.962;2022-10-31T00:40:32;100996.25;;;20.62;62.68
13011;BME280;6786;57.632;11.962;2022-10-31T00:43:00;101008.88;;;20.62;62.79
13011;BME280;6786;57.632;11.962;2022-10-31T00:45:29;101005.31;;;20.61;62.88
13011;BME280;6786;57.632;11.962;2022-10-31T00:47:57;101008.00;;;20.61;62.85
13011;BME280;6786;57.632;11.962;2022-10-31T00:50:25;100998.94;;;20.62;62.67
13011;BME280;6786;57.632;11.962;2022-10-31T00:52:53;100999.94;;;20.61;62.71
13011;BME280;6786;57.632;11.962;2022-10-31T00:55:23;101003.63;;;20.60;62.68
13011;BME280;6786;57.632;11.962;2022-10-31T00:57:51;100998.13;;;20.62;62.91
13011;BME280;6786;57.632;11.962;2022-10-31T01:00:20;100998.13;;;20.62;62.66
13011;BME280;6786;57.632;11.962;2022-10-31T01:02:49;100989.19;;;20.61;62.73
13011;BME280;6786;57.632;11.962;2022-10-31T01:05:17;100983.84;;;20.61;62.81
13011;BME280;6786;57.632;11.962;2022-10-31T01:07:45;100966.16;;;20.59;63.04
13011;BME280;6786;57.632;11.962;2022-10-31T01:10:13;100978.47;;;20.61;62.91
13011;BME280;6786;57.632;11.962;2022-10-31T01:12:43;100989.34;;;20.60;62.96
13011;BME280;6786;57.632;11.962;2022-10-31T01:15:14;100986.53;;;20.61;62.92
13011;BME280;6786;57.632;11.962;2022-10-31T01:17:42;100979.47;;;20.60;62.79
13011;BME280;6786;57.632;11.962;2022-10-31T01:20:11;100979.47;;;20.60;62.80
13011;BME280;6786;57.632;11.962;2022-10-31T01:22:40;100990.19;;;20.60;62.82
13011;BME280;6786;57.632;11.962;2022-10-31T01:25:09;100991.03;;;20.61;62.76
13011;BME280;6786;57.632;11.962;2022-10-31T01:27:37;100985.09;;;20.57;62.77
13011;BME280;6786;57.632;11.962;2022-10-31T01:30:08;100973.50;;;20.57;62.66
13011;BME280;6786;57.632;11.962;2022-10-31T01:32:36;100983.09;;;20.59;62.71
13011;BME280;6786;57.632;11.962;2022-10-31T01:35:04;100978.75;;;20.58;62.88
13011;BME280;6786;57.632;11.962;2022-10-31T01:37:32;100966.03;;;20.60;62.59
13011;BME280;6786;57.632;11.962;2022-10-31T01:40:00;100951.75;;;20.60;62.95
13011;BME280;6786;57.632;11.962;2022-10-31T01:42:28;100975.78;;;20.61;62.77
13011;BME280;6786;57.632;11.962;2022-10-31T01:44:59;100965.03;;;20.61;62.89
13011;BME280;6786;57.632;11.962;2022-10-31T01:47:37;100970.41;;;20.61;62.73
13011;BME280;6786;57.632;11.962;2022-10-31T01:50:16;100966.03;;;20.60;62.70
13011;BME280;6786;57.632;11.962;2022-10-31T01:52:48;100968.72;;;20.60;62.93
13011;BME280;6786;57.632;11.962;2022-10-31T01:55:20;100962.50;;;20.60;62.97
13011;BME280;6786;57.632;11.962;2022-10-31T01:57:57;100972.38;;;20.59;62.86
13011;BME280;6786;57.632;11.962;2022-10-31T02:00:27;100966.59;;;20.54;62.57
13011;BME280;6786;57.632;11.962;2022-10-31T02:02:57;100980.28;;;20.61;62.86
13011;BME280;6786;57.632;11.962;2022-10-31T02:05:28;100981.41;;;20.58;62.84
13011;BME280;6786;57.632;11.962;2022-10-31T02:08:01;100985.66;;;20.61;62.70
13011;BME280;6786;57.632;11.962;2022-10-31T02:10:32;100986.78;;;20.58;62.73
13011;BME280;6786;57.632;11.962;2022-10-31T02:13:02;100991.88;;;20.61;63.04
13011;BME280;6786;57.632;11.962;2022-10-31T02:15:31;100987.94;;;20.65;62.78
13011;BME280;6786;57.632;11.962;2022-10-31T02:18:02;101007.44;;;20.67;62.48
13011;BME280;6786;57.632;11.962;2022-10-31T02:20:33;101006.72;;;20.65;62.48
13011;BME280;6786;57.632;11.962;2022-10-31T02:23:21;101024.28;;;20.69;62.73
13011;BME280;6786;57.632;11.962;2022-10-31T02:26:11;101014.50;;;20.68;62.79
13011;BME280;6786;57.632;11.962;2022-10-31T02:28:59;101012.81;;;20.67;62.64
13011;BME280;6786;57.632;11.962;2022-10-31T02:31:40;101012.81;;;20.67;62.66
13011;BME280;6786;57.632;11.962;2022-10-31T02:34:18;101013.69;;;20.68;62.54
13011;BME280;6786;57.632;11.962;2022-10-31T02:36:53;101008.59;;;20.65;62.59
13011;BME280;6786;57.632;11.962;2022-10-31T02:39:26;101025.25;;;20.68;62.37
13011;BME280;6786;57.632;11.962;2022-10-31T02:42:02;101030.63;;;20.68;62.63
13011;BME280;6786;57.632;11.962;2022-10-31T02:44:36;101036.84;;;20.69;62.67
13011;BME280;6786;57.632;11.962;2022-10-31T02:47:11;101034.31;;;20.67;62.62
13011;BME280;6786;57.632;11.962;2022-10-31T02:49:43;101025.53;;;20.65;62.41
13011;BME280;6786;57.632;11.962;2022-10-31T02:52:17;101034.31;;;20.67;62.56
13011;BME280;6786;57.632;11.962;2022-10-31T02:54:46;101028.94;;;20.67;62.52
13011;BME280;6786;57.632;11.962;2022-10-31T02:57:20;101028.94;;;20.67;62.47
13011;BME280;6786;57.632;11.962;2022-10-31T02:59:53;101030.63;;;20.68;62.54
13011;BME280;6786;57.632;11.962;2022-10-31T03:02:43;101016.22;;;20.69;62.48
13011;BME280;6786;57.632;11.962;2022-10-31T03:05:30;101011.81;;;20.68;62.59
13011;BME280;6786;57.632;11.962;2022-10-31T03:08:07;101003.75;;;20.68;62.67
13011;BME280;6786;57.632;11.962;2022-10-31T03:10:42;101002.06;;;20.67;62.45
13011;BME280;6786;57.632;11.962;2022-10-31T03:13:21;100976.59;;;20.43;62.38
13011;BME280;6786;57.632;11.962;2022-10-31T03:15:57;101020.16;;;20.65;62.69
13011;BME280;6786;57.632;11.962;2022-10-31T03:18:31;101030.63;;;20.68;62.45
13011;BME280;6786;57.632;11.962;2022-10-31T03:21:05;101026.97;;;20.69;62.38
13011;BME280;6786;57.632;11.962;2022-10-31T03:23:36;101036.00;;;20.68;62.50
13011;BME280;6786;57.632;11.962;2022-10-31T03:26:07;101037.72;;;20.69;62.52
13011;BME280;6786;57.632;11.962;2022-10-31T03:28:39;101049.28;;;20.60;62.45
13011;BME280;6786;57.632;11.962;2022-10-31T03:31:09;101059.19;;;20.69;62.42
13011;BME280;6786;57.632;11.962;2022-10-31T03:33:42;101052.84;;;20.70;62.68
13011;BME280;6786;57.632;11.962;2022-10-31T03:36:14;101050.16;;;20.70;62.46
13011;BME280;6786;57.632;11.962;2022-10-31T03:38:45;101053.84;;;20.69;62.47
13011;BME280;6786;57.632;11.962;2022-10-31T03:41:17;101068.94;;;20.70;62.65
13011;BME280;6786;57.632;11.962;2022-10-31T03:43:52;101073.31;;;20.71;62.49
13011;BME280;6786;57.632;11.962;2022-10-31T03:46:23;101068.94;;;20.70;62.36
13011;BME280;6786;57.632;11.962;2022-10-31T03:48:53;101052.38;;;20.65;62.67
13011;BME280;6786;57.632;11.962;2022-10-31T03:51:26;101050.97;;;20.61;62.71
13011;BME280;6786;57.632;11.962;2022-10-31T03:54:00;101049.28;;;20.60;62.72
13011;BME280;6786;57.632;11.962;2022-10-31T03:56:34;101051.84;;;20.62;62.87
13011;BME280;6786;57.632;11.962;2022-10-31T03:59:07;101054.09;;;20.66;62.53
13011;BME280;6786;57.632;11.962;2022-10-31T04:01:39;101039.69;;;20.67;62.54
13011;BME280;6786;57.632;11.962;2022-10-31T04:04:10;101048.47;;;20.69;62.67
13011;BME280;6786;57.632;11.962;2022-10-31T04:06:40;101046.75;;;20.68;62.70
13011;BME280;6786;57.632;11.962;2022-10-31T04:09:10;101046.75;;;20.68;62.78
13011;BME280;6786;57.632;11.962;2022-10-31T04:11:43;101053.84;;;20.69;62.71
13011;BME280;6786;57.632;11.962;2022-10-31T04:14:13;101043.91;;;20.70;62.46
13011;BME280;6786;57.632;11.962;2022-10-31T04:16:43;101038.81;;;20.67;62.49
13011;BME280;6786;57.632;11.962;2022-10-31T04:19:14;101046.75;;;20.68;62.49
13011;BME280;6786;57.632;11.962;2022-10-31T04:21:42;101044.06;;;20.68;62.49
13011;BME280;6786;57.632;11.962;2022-10-31T04:24:11;101039.41;;;20.70;62.64
13011;BME280;6786;57.632;11.962;2022-10-31T04:26:39;101022.44;;;20.60;62.64
13011;BME280;6786;57.632;11.962;2022-10-31T04:29:07;101037.72;;;20.69;62.74
13011;BME280;6786;57.632;11.962;2022-10-31T04:31:35;101037.72;;;20.69;62.63
13011;BME280;6786;57.632;11.962;2022-10-31T04:34:03;101044.78;;;20.70;62.48
13011;BME280;6786;57.632;11.962;2022-10-31T04:36:33;101037.72;;;20.69;62.66
13011;BME280;6786;57.632;11.962;2022-10-31T04:39:01;101039.41;;;20.70;62.57
13011;BME280;6786;57.632;11.962;2022-10-31T04:41:29;101037.72;;;20.69;62.78
13011;BME280;6786;57.632;11.962;2022-10-31T04:43:57;101048.47;;;20.69;62.63
13011;BME280;6786;57.632;11.962;2022-10-31T04:46:25;101045.78;;;20.69;62.61
13011;BME280;6786;57.632;11.962;2022-10-31T04:48:53;101058.06;;;20.72;62.63
13011;BME280;6786;57.632;11.962;2022-10-31T04:51:21;101054.53;;;20.71;62.56
13011;BME280;6786;57.632;11.962;2022-10-31T04:53:51;101060.91;;;20.70;62.64
13011;BME280;6786;57.632;11.962;2022-10-31T04:56:19;101055.53;;;20.70;62.54
13011;BME280;6786;57.632;11.962;2022-10-31T04:58:47;101067.94;;;20.71;62.37
13011;BME280;6786;57.632;11.962;2022-10-31T05:01:15;101064.84;;;20.66;62.58
13011;BME280;6786;57.632;11.962;2022-10-31T05:03:44;101067.94;;;20.71;62.60
13011;BME280;6786;57.632;11.962;2022-10-31T05:06:12;101067.13;;;20.71;62.70
13011;BME280;6786;57.632;11.962;2022-10-31T05:08:40;101068.22;;;20.68;62.51
13011;BME280;6786;57.632;11.962;2022-10-31T05:11:09;101066.25;;;20.70;62.45
13011;BME280;6786;57.632;11.962;2022-10-31T05:13:37;101080.56;;;20.71;62.64
13011;BME280;6786;57.632;11.962;2022-10-31T05:16:06;101069.94;;;20.69;62.78
13011;BME280;6786;57.632;11.962;2022-10-31T05:18:34;101070.78;;;20.70;62.75
13011;BME280;6786;57.632;11.962;2022-10-31T05:21:02;101077.88;;;20.71;62.63
13011;BME280;6786;57.632;11.962;2022-10-31T05:23:30;101078.69;;;20.71;62.67
13011;BME280;6786;57.632;11.962;2022-10-31T05:25:59;101069.94;;;20.69;62.44
13011;BME280;6786;57.632;11.962;2022-10-31T05:28:29;101078.69;;;20.71;62.73
13011;BME280;6786;57.632;11.962;2022-10-31T05:30:57;101077.00;;;20.70;62.57
13011;BME280;6786;57.632;11.962;2022-10-31T05:33:25;101087.75;;;20.70;62.50
13011;BME280;6786;57.632;11.962;2022-10-31T05:35:53;101086.06;;;20.69;62.53
13011;BME280;6786;57.632;11.962;2022-10-31T05:38:22;101091.44;;;20.69;62.77
13011;BME280;6786;57.632;11.962;2022-10-31T05:40:50;101092.41;;;20.68;62.73
13011;BME280;6786;57.632;11.962;2022-10-31T05:43:24;101085.47;;;20.66;62.60
13011;BME280;6786;57.632;11.962;2022-10-31T05:45:54;101088.03;;;20.67;62.65
13011;BME280;6786;57.632;11.962;2022-10-31T05:48:22;101089.72;;;20.68;62.54
13011;BME280;6786;57.632;11.962;2022-10-31T05:50:50;101087.75;;;20.70;62.51
13011;BME280;6786;57.632;11.962;2022-10-31T05:53:18;101082.66;;;20.67;62.59
13011;BME280;6786;57.632;11.962;2022-10-31T05:55:46;101075.31;;;20.69;62.79
13011;BME280;6786;57.632;11.962;2022-10-31T05:58:16;101087.03;;;20.68;62.86
13011;BME280;6786;57.632;11.962;2022-10-31T06:00:44;101087.75;;;20.70;62.53
13011;BME280;6786;57.632;11.962;2022-10-31T06:03:13;101082.38;;;20.70;62.61
13011;BME280;6786;57.632;11.962;2022-10-31T06:05:42;101086.88;;;20.70;62.55
13011;BME280;6786;57.632;11.962;2022-10-31T06:08:16;101087.75;;;20.70;62.76
13011;BME280;6786;57.632;11.962;2022-10-31T06:10:44;101096.81;;;20.69;62.50
13011;BME280;6786;57.632;11.962;2022-10-31T06:13:12;101087.03;;;20.68;62.69
13011;BME280;6786;57.632;11.962;2022-10-31T06:15:41;101098.50;;;20.70;62.54
13011;BME280;6786;57.632;11.962;2022-10-31T06:18:09;101105.56;;;20.71;62.74
13011;BME280;6786;57.632;11.962;2022-10-31T06:20:38;101096.81;;;20.69;62.59
13011;BME280;6786;57.632;11.962;2022-10-31T06:23:08;101096.81;;;20.69;62.93
13011;BME280;6786;57.632;11.962;2022-10-31T06:25:36;101102.19;;;20.69;62.69
13011;BME280;6786;57.632;11.962;2022-10-31T06:28:05;101102.44;;;20.66;62.91
13011;BME280;6786;57.632;11.962;2022-10-31T06:30:44;101106.09;;;20.65;62.72
13011;BME280;6786;57.632;11.962;2022-10-31T06:33:14;101115.16;;;20.64;62.69
13011;BME280;6786;57.632;11.962;2022-10-31T06:35:48;101113.34;;;20.65;62.89
13011;BME280;6786;57.632;11.962;2022-10-31T06:38:18;101115.16;;;20.64;62.75
13011;BME280;6786;57.632;11.962;2022-10-31T06:40:51;101120.53;;;20.64;62.96
13011;BME280;6786;57.632;11.962;2022-10-31T06:43:23;101123.22;;;20.64;62.63
13011;BME280;6786;57.632;11.962;2022-10-31T06:45:52;101127.88;;;20.62;63.06
13011;BME280;6786;57.632;11.962;2022-10-31T06:48:20;101135.78;;;20.64;62.81
13011;BME280;6786;57.632;11.962;2022-10-31T06:50:50;101142.88;;;20.65;62.75
13011;BME280;6786;57.632;11.962;2022-10-31T06:53:25;101131.28;;;20.64;62.98
13011;BME280;6786;57.632;11.962;2022-10-31T06:55:56;101136.66;;;20.64;62.82
13011;BME280;6786;57.632;11.962;2022-10-31T06:58:24;101136.66;;;20.64;62.84
13011;BME280;6786;57.632;11.962;2022-10-31T07:00:52;101138.47;;;20.64;62.75
13011;BME280;6786;57.632;11.962;2022-10-31T07:03:20;101139.88;;;20.58;62.78
13011;BME280;6786;57.632;11.962;2022-10-31T07:05:50;101145.69;;;20.63;63.01
13011;BME280;6786;57.632;11.962;2022-10-31T07:08:18;101145.69;;;20.63;63.00
13011;BME280;6786;57.632;11.962;2022-10-31T07:10:51;101142.00;;;20.64;63.15
13011;BME280;6786;57.632;11.962;2022-10-31T07:13:20;101149.06;;;20.65;62.75
13011;BME280;6786;57.632;11.962;2022-10-31T07:15:53;101152.75;;;20.64;62.77
13011;BME280;6786;57.632;11.962;2022-10-31T07:18:22;101147.38;;;20.64;62.80
13011;BME280;6786;57.632;11.962;2022-10-31T07:20:52;101153.63;;;20.65;62.77
13011;BME280;6786;57.632;11.962;2022-10-31T07:23:21;101153.63;;;20.65;62.92
13011;BME280;6786;57.632;11.962;2022-10-31T07:25:54;101161.53;;;20.66;62.73
13011;BME280;6786;57.632;11.962;2022-10-31T07:28:23;101154.44;;;20.65;63.00
13011;BME280;6786;57.632;11.962;2022-10-31T07:30:52;101159.81;;;20.65;62.66
13011;BME280;6786;57.632;11.962;2022-10-31T07:33:21;101165.19;;;20.65;62.92
13011;BME280;6786;57.632;11.962;2022-10-31T07:35:49;101159.81;;;20.65;62.82
13011;BME280;6786;57.632;11.962;2022-10-31T07:38:18;101177.66;;;20.66;62.87
13011;BME280;6786;57.632;11.962;2022-10-31T07:40:50;101172.56;;;20.63;62.92
13011;BME280;6786;57.632;11.962;2022-10-31T07:43:18;101175.94;;;20.65;62.82
13011;BME280;6786;57.632;11.962;2022-10-31T07:45:49;101141.94;;;20.45;62.82
13011;BME280;6786;57.632;11.962;2022-10-31T07:48:19;101176.81;;;20.66;62.98
13011;BME280;6786;57.632;11.962;2022-10-31T07:50:47;101194.75;;;20.65;62.75
13011;BME280;6786;57.632;11.962;2022-10-31T07:53:15;101191.22;;;20.65;62.97
13011;BME280;6786;57.632;11.962;2022-10-31T07:55:45;101193.78;;;20.66;62.76
13011;BME280;6786;57.632;11.962;2022-10-31T07:58:14;101185.53;;;20.58;62.66
13011;BME280;6786;57.632;11.962;2022-10-31T08:00:45;101200.84;;;20.67;62.85
13011;BME280;6786;57.632;11.962;2022-10-31T08:03:15;101204.53;;;20.66;62.91
13011;BME280;6786;57.632;11.962;2022-10-31T08:05:43;101174.16;;;20.45;62.74
13011;BME280;6786;57.632;11.962;2022-10-31T08:08:13;101209.03;;;20.66;63.00
13011;BME280;6786;57.632;11.962;2022-10-31T08:10:42;101204.78;;;20.63;63.01
13011;BME280;6786;57.632;11.962;2022-10-31T08:13:12;101199.41;;;20.63;62.98
13011;BME280;6786;57.632;11.962;2022-10-31T08:15:41;101200.38;;;20.62;63.02
13011;BME280;6786;57.632;11.962;2022-10-31T08:18:12;101201.38;;;20.61;63.00
13011;BME280;6786;57.632;11.962;2022-10-31T08:20:40;101204.78;;;20.63;62.94
13011;BME280;6786;57.632;11.962;2022-10-31T08:23:10;101196.72;;;20.63;62.85
13011;BME280;6786;57.632;11.962;2022-10-31T08:25:38;101156.75;;;20.40;63.02
13011;BME280;6786;57.632;11.962;2022-10-31T08:28:09;101201.38;;;20.61;63.03
13011;BME280;6786;57.632;11.962;2022-10-31T08:30:41;101197.13;;;20.59;63.03
13011;BME280;6786;57.632;11.962;2022-10-31T08:33:10;101194.56;;;20.57;63.09
13011;BME280;6786;57.632;11.962;2022-10-31T08:35:39;101193.59;;;20.58;63.16
13011;BME280;6786;57.632;11.962;2022-10-31T08:38:08;101205.06;;;20.60;62.99
13011;BME280;6786;57.632;11.962;2022-10-31T08:40:37;101186.31;;;20.49;62.96
13011;BME280;6786;57.632;11.962;2022-10-31T08:43:08;101200.66;;;20.59;62.96
13011;BME280;6786;57.632;11.962;2022-10-31T08:45:39;101205.31;;;20.57;62.98
13011;BME280;6786;57.632;11.962;2022-10-31T08:48:11;101205.88;;;20.61;62.94
13011;BME280;6786;57.632;11.962;2022-10-31T08:50:39;101209.44;;;20.61;63.17
13011;BME280;6786;57.632;11.962;2022-10-31T08:53:11;101212.13;;;20.61;63.15
13011;BME280;6786;57.632;11.962;2022-10-31T08:55:40;101210.16;;;20.63;62.99
13011;BME280;6786;57.632;11.962;2022-10-31T08:58:10;101213.81;;;20.62;62.81
13011;BME280;6786;57.632;11.962;2022-10-31T09:00:41;101207.88;;;20.59;63.14
13011;BME280;6786;57.632;11.962;2022-10-31T09:03:11;101219.19;;;20.62;62.84
13011;BME280;6786;57.632;11.962;2022-10-31T09:05:39;101220.91;;;20.63;63.14
13011;BME280;6786;57.632;11.962;2022-10-31T09:08:07;101219.19;;;20.62;62.80
13011;BME280;6786;57.632;11.962;2022-10-31T09:10:42;101217.34;;;20.63;62.95
13011;BME280;6786;57.632;11.962;2022-10-31T09:13:12;101227.09;;;20.64;63.12
13011;BME280;6786;57.632;11.962;2022-10-31T09:15:43;101218.47;;;20.60;63.16
13011;BME280;6786;57.632;11.962;2022-10-31T09:18:13;101217.22;;;20.64;62.71
13011;BME280;6786;57.632;11.962;2022-10-31T09:20:42;101233.34;;;20.64;62.90
13011;BME280;6786;57.632;11.962;2022-10-31T09:23:12;101225.28;;;20.64;62.71
13011;BME280;6786;57.632;11.962;2022-10-31T09:25:41;101222.59;;;20.64;62.85
13011;BME280;6786;57.632;11.962;2022-10-31T09:28:18;101233.34;;;20.64;63.12
13011;BME280;6786;57.632;11.962;2022-10-31T09:30:50;101235.03;;;20.65;63.09
13011;BME280;6786;57.632;11.962;2022-10-31T09:33:19;101227.09;;;20.64;62.90
13011;BME280;6786;57.632;11.962;2022-10-31T09:35:48;101229.91;;;20.62;62.75
13011;BME280;6786;57.632;11.962;2022-10-31T09:38:18;101238.72;;;20.64;63.06
13011;BME280;6786;57.632;11.962;2022-10-31T09:40:49;101244.09;;;20.64;63.10
13011;BME280;6786;57.632;11.962;2022-10-31T09:43:25;101244.09;;;20.64;62.87
13011;BME280;6786;57.632;11.962;2022-10-31T09:46:02;101238.72;;;20.64;62.84
13011;BME280;6786;57.632;11.962;2022-10-31T09:51:29;101247.75;;;20.63;63.09
13011;BME280;6786;57.632;11.962;2022-10-31T09:54:02;101245.22;;;20.62;62.94
13011;BME280;6786;57.632;11.962;2022-10-31T09:56:33;101233.88;;;20.58;62.88
13011;BME280;6786;57.632;11.962;2022-10-31T09:59:04;101233.59;;;20.61;62.97
13011;BME280;6786;57.632;11.962;2022-10-31T10:01:41;101236.75;;;20.66;63.31
13011;BME280;6786;57.632;11.962;2022-10-31T10:04:23;101240.13;;;20.68;63.18
13011;BME280;6786;57.632;11.962;2022-10-31T10:06:53;101239.03;;;20.71;63.10
13011;BME280;6786;57.632;11.962;2022-10-31T10:09:25;101241.59;;;20.72;63.24
13011;BME280;6786;57.632;11.962;2022-10-31T10:12:01;101201.91;;;20.55;63.44
13011;BME280;6786;57.632;11.962;2022-10-31T10:14:41;101237.66;;;20.76;63.53
13011;BME280;6786;57.632;11.962;2022-10-31T10:17:25;101236.66;;;20.77;63.38
13011;BME280;6786;57.632;11.962;2022-10-31T10:20:16;101240.34;;;20.76;63.84
13011;BME280;6786;57.632;11.962;2022-10-31T10:22:51;101239.34;;;20.77;63.60
13011;BME280;6786;57.632;11.962;2022-10-31T10:25:22;101230.31;;;20.78;63.63
13011;BME280;6786;57.632;11.962;2022-10-31T10:28:00;101221.25;;;20.79;63.64
13011;BME280;6786;57.632;11.962;2022-10-31T10:30:35;101222.94;;;20.80;63.47
13011;BME280;6786;57.632;11.962;2022-10-31T10:33:12;101215.88;;;20.79;63.81
13011;BME280;6786;57.632;11.962;2022-10-31T10:35:43;101227.34;;;20.81;63.74
13011;BME280;6786;57.632;11.962;2022-10-31T10:38:17;101226.38;;;20.82;63.48
13011;BME280;6786;57.632;11.962;2022-10-31T10:40:47;101215.88;;;20.79;63.66
13011;BME280;6786;57.632;11.962;2022-10-31T10:43:20;101223.81;;;20.81;63.85
13011;BME280;6786;57.632;11.962;2022-10-31T10:45:56;101227.09;;;20.84;63.68
13011;BME280;6786;57.632;11.962;2022-10-31T10:48:50;101231.47;;;20.85;63.69
13011;BME280;6786;57.632;11.962;2022-10-31T10:51:23;101217.00;;;20.77;63.51
13011;BME280;6786;57.632;11.962;2022-10-31T10:57:42;101229.78;;;20.84;63.52
13011;BME280;6786;57.632;11.962;2022-10-31T11:00:18;101230.75;;;20.83;63.59
13011;BME280;6786;57.632;11.962;2022-10-31T11:02:47;101240.53;;;20.84;63.33
13011;BME280;6786;57.632;11.962;2022-10-31T11:05:22;101234.28;;;20.84;63.57
13011;BME280;6786;57.632;11.962;2022-10-31T11:07:51;101230.75;;;20.83;63.58
13011;BME280;6786;57.632;11.962;2022-10-31T11:10:19;101226.38;;;20.82;63.52
13011;BME280;6786;57.632;11.962;2022-10-31T11:13:03;101239.06;;;20.80;63.19
13011;BME280;6786;57.632;11.962;2022-10-31T11:15:50;101237.66;;;20.76;63.47
13011;BME280;6786;57.632;11.962;2022-10-31T11:18:21;101240.19;;;20.78;63.35
13011;BME280;6786;57.632;11.962;2022-10-31T11:20:59;101235.94;;;20.75;63.12
13011;BME280;6786;57.632;11.962;2022-10-31T11:23:28;101236.66;;;20.77;63.27
13011;BME280;6786;57.632;11.962;2022-10-31T11:25:58;101233.97;;;20.77;63.21
13011;BME280;6786;57.632;11.962;2022-10-31T11:28:27;101237.38;;;20.79;63.45
13011;BME280;6786;57.632;11.962;2022-10-31T11:31:00;101235.16;;;20.84;63.67
13011;BME280;6786;57.632;11.962;2022-10-31T11:33:31;101236.56;;;20.88;63.45
13011;BME280;6786;57.632;11.962;2022-10-31T11:36:02;101234.88;;;20.87;63.27
13011;BME280;6786;57.632;11.962;2022-10-31T11:38:39;101228.25;;;20.91;63.50
13011;BME280;6786;57.632;11.962;2022-10-31T11:41:11;101222.13;;;20.89;63.48
13011;BME280;6786;57.632;11.962;2022-10-31T11:43:46;101228.09;;;20.93;63.52
13011;BME280;6786;57.632;11.962;2022-10-31T11:46:20;101224.44;;;20.94;63.25
13011;BME280;6786;57.632;11.962;2022-10-31T11:48:53;101221.63;;;20.95;63.31
13011;BME280;6786;57.632;11.962;2022-10-31T11:51:25;101224.31;;;20.95;63.32
13011;BME280;6786;57.632;11.962;2022-10-31T11:53:57;101221.63;;;20.95;63.23
13011;BME280;6786;57.632;11.962;2022-10-31T11:56:38;101219.94;;;20.94;63.34
13011;BME280;6786;57.632;11.962;2022-10-31T11:59:17;101221.63;;;20.95;63.45
13011;BME280;6786;57.632;11.962;2022-10-31T12:01:49;101233.13;;;20.97;63.15
13011;BME280;6786;57.632;11.962;2022-10-31T12:04:35;101235.81;;;20.97;63.53
13011;BME280;6786;57.632;11.962;2022-10-31T12:07:06;101235.81;;;20.97;63.42
13011;BME280;6786;57.632;11.962;2022-10-31T12:09:36;101242.59;;;21.01;63.21
13011;BME280;6786;57.632;11.962;2022-10-31T12:12:44;101232.13;;;20.98;63.28
13011;BME280;6786;57.632;11.962;2022-10-31T12:15:29;101237.22;;;21.01;63.42
13011;BME280;6786;57.632;11.962;2022-10-31T12:18:16;101231.84;;;21.01;63.37
13011;BME280;6786;57.632;11.962;2022-10-31T12:20:54;101242.59;;;21.01;63.47
13011;BME280;6786;57.632;11.962;2022-10-31T12:23:38;101235.53;;;21.00;63.48
13011;BME280;6786;57.632;11.962;2022-10-31T12:26:16;101204.13;;;20.80;63.19
13011;BME280;6786;57.632;11.962;2022-10-31T12:29:05;101236.53;;;20.99;63.42
13011;BME280;6786;57.632;11.962;2022-10-31T12:31:46;101233.84;;;20.99;63.52
13011;BME280;6786;57.632;11.962;2022-10-31T12:34:34;101237.50;;;20.98;63.61
13011;BME280;6786;57.632;11.962;2022-10-31T12:37:24;101233.53;;;21.02;63.31
13011;BME280;6786;57.632;11.962;2022-10-31T12:40:06;101239.78;;;21.03;63.61
13011;BME280;6786;57.632;11.962;2022-10-31T12:42:49;101240.63;;;21.03;63.56
13011;BME280;6786;57.632;11.962;2022-10-31T12:45:39;101235.25;;;21.03;63.44
13011;BME280;6786;57.632;11.962;2022-10-31T12:48:25;101242.59;;;21.01;63.69
13011;BME280;6786;57.632;11.962;2022-10-31T12:51:04;101244.28;;;21.02;63.28
13011;BME280;6786;57.632;11.962;2022-10-31T12:53:44;101244.28;;;21.02;63.59
13011;BME280;6786;57.632;11.962;2022-10-31T12:56:26;101252.34;;;21.02;63.39
13011;BME280;6786;57.632;11.962;2022-10-31T12:59:00;101245.28;;;21.01;63.61
13011;BME280;6786;57.632;11.962;2022-10-31T13:01:32;101255.03;;;21.02;63.63
13011;BME280;6786;57.632;11.962;2022-10-31T13:04:05;101257.72;;;21.02;63.63
13011;BME280;6786;57.632;11.962;2022-10-31T13:06:40;101257.03;;;21.00;63.48
13011;BME280;6786;57.632;11.962;2022-10-31T13:09:15;101257.84;;;21.01;63.69
13011;BME280;6786;57.632;11.962;2022-10-31T13:11:50;101264.09;;;21.01;63.44
13011;BME280;6786;57.632;11.962;2022-10-31T13:14:25;101260.72;;;20.99;63.46
13011;BME280;6786;57.632;11.962;2022-10-31T13:16:55;101265.78;;;21.02;63.42
13011;BME280;6786;57.632;11.962;2022-10-31T13:19:27;101262.13;;;21.03;63.46
13011;BME280;6786;57.632;11.962;2022-10-31T13:22:00;101258.59;;;21.03;63.42